Time;durP1;ratioP1;P1;durP2;ratioP2;P2;SDS_P1;SDS_P2;PMS_P1;PMS_P2;Temp;Humidity;BMP_temperature;BMP_pressure;BME280_temperature;BME280_humidity;BME280_pressure;Samples;Min_cycle;Max_cycle;Signal;HPM_P1;HPM_P2
2023/04/24 00:01:02;;;;;;;4.80;4.17;;;10.90;99.90;;;;;;5014593;28;20234;-82
2023/04/24 00:03:29;;;;;;;5.30;4.80;;;10.90;99.90;;;;;;5011888;28;20225;-82
2023/04/24 00:05:56;;;;;;;5.47;4.97;;;10.90;99.90;;;;;;5028725;28;20694;-81
2023/04/24 00:08:23;;;;;;;6.60;5.00;;;10.80;99.90;;;;;;5034103;28;20231;-81
2023/04/24 00:10:52;;;;;;;5.80;5.20;;;10.80;99.90;;;;;;5023467;28;20225;-81
2023/04/24 00:13:19;;;;;;;6.47;5.40;;;10.70;99.90;;;;;;5018142;28;20217;-80
2023/04/24 00:15:46;;;;;;;7.57;5.20;;;10.70;99.90;;;;;;5028729;28;20216;-80
2023/04/24 00:18:13;;;;;;;5.83;4.80;;;10.70;99.90;;;;;;5011446;28;20225;-80
2023/04/24 00:20:40;;;;;;;6.70;5.53;;;10.70;99.90;;;;;;5028237;28;20227;-80
2023/04/24 00:23:06;;;;;;;7.80;5.30;;;10.70;99.90;;;;;;5012179;28;20643;-80
2023/04/24 00:25:33;;;;;;;5.80;5.20;;;10.70;99.90;;;;;;5005698;28;20253;-81
2023/04/24 00:28:01;;;;;;;5.57;4.93;;;10.60;99.90;;;;;;5016121;28;20767;-79
2023/04/24 00:30:28;;;;;;;5.80;5.13;;;10.60;99.90;;;;;;5023913;28;20224;-79
2023/04/24 00:32:54;;;;;;;7.03;5.37;;;10.60;99.90;;;;;;5013220;28;20217;-80
2023/04/24 00:35:23;;;;;;;5.97;5.37;;;10.60;99.90;;;;;;5028474;28;20231;-80
2023/04/24 00:37:49;;;;;;;6.60;5.30;;;10.60;99.90;;;;;;5014107;28;20225;-80
2023/04/24 00:40:16;;;;;;;6.47;5.33;;;10.60;99.90;;;;;;5026886;28;20228;-80
2023/04/24 00:42:44;;;;;;;6.27;5.63;;;10.50;99.90;;;;;;5019264;28;20735;-80
2023/04/24 00:45:13;;;;;;;7.93;5.93;;;10.50;99.90;;;;;;5028133;28;20918;-81
2023/04/24 00:47:40;;;;;;;6.43;5.67;;;10.50;99.90;;;;;;5029242;28;20319;-80
2023/04/24 00:50:08;;;;;;;6.43;5.83;;;10.50;99.90;;;;;;5016355;28;20239;-81
2023/04/24 00:52:35;;;;;;;6.30;5.67;;;10.50;99.90;;;;;;5019847;28;20298;-81
2023/04/24 00:55:02;;;;;;;8.07;6.83;;;10.50;99.90;;;;;;5025566;28;20316;-81
2023/04/24 00:57:30;;;;;;;6.27;5.67;;;10.50;99.90;;;;;;5025997;28;20230;-80
2023/04/24 00:59:56;;;;;;;9.53;6.50;;;10.40;99.90;;;;;;5013861;28;20837;-80
2023/04/24 01:02:26;;;;;;;6.60;6.00;;;10.40;99.90;;;;;;5014517;28;20242;-80
2023/04/24 01:04:53;;;;;;;7.40;6.60;;;10.40;99.90;;;;;;5017627;28;20282;-80
2023/04/24 01:07:21;;;;;;;6.83;6.03;;;10.40;99.90;;;;;;5023261;28;20844;-81
2023/04/24 01:09:50;;;;;;;7.13;6.23;;;10.40;99.90;;;;;;5026466;28;20903;-81
2023/04/24 01:12:19;;;;;;;7.37;6.50;;;10.50;99.90;;;;;;5014068;28;20217;-81
2023/04/24 01:14:46;;;;;;;6.80;6.07;;;10.40;99.90;;;;;;5026413;28;20563;-81
2023/04/24 01:17:12;;;;;;;6.67;5.93;;;10.40;99.90;;;;;;5013805;28;20228;-80
2023/04/24 01:19:40;;;;;;;7.30;6.27;;;10.50;99.90;;;;;;5008185;28;20225;-80
2023/04/24 01:22:14;;;;;;;6.53;5.90;;;10.50;99.90;;;;;;5040210;28;20318;-80
2023/04/24 01:24:41;;;;;;;5.73;5.23;;;10.50;99.90;;;;;;5014157;28;20302;-79
2023/04/24 01:27:09;;;;;;;6.10;5.50;;;10.50;99.90;;;;;;5013802;28;20854;-80
2023/04/24 01:29:36;;;;;;;5.70;5.10;;;10.50;99.90;;;;;;5019536;28;20672;-80
2023/04/24 01:32:04;;;;;;;7.57;5.20;;;10.50;99.90;;;;;;5021251;28;20237;-80
2023/04/24 01:34:32;;;;;;;4.63;4.13;;;10.50;99.90;;;;;;5020411;28;20314;-80
2023/04/24 01:36:59;;;;;;;5.70;4.40;;;10.50;99.90;;;;;;5044480;28;20941;-80
2023/04/24 01:39:28;;;;;;;4.30;3.80;;;10.50;99.90;;;;;;5026655;28;20226;-80
2023/04/24 01:41:55;;;;;;;4.17;3.73;;;10.50;99.90;;;;;;5008304;28;20621;-80
2023/04/24 01:44:22;;;;;;;4.87;3.97;;;10.50;99.90;;;;;;5013394;28;20303;-80
2023/04/24 01:46:49;;;;;;;4.63;4.10;;;10.40;99.90;;;;;;5042016;28;20218;-79
2023/04/24 01:49:16;;;;;;;4.27;3.53;;;10.40;99.90;;;;;;5010211;28;20709;-79
2023/04/24 01:51:43;;;;;;;5.37;3.80;;;10.40;99.90;;;;;;5024883;28;20216;-79
2023/04/24 01:54:09;;;;;;;4.23;3.57;;;10.40;99.90;;;;;;5009716;28;20842;-79
2023/04/24 01:56:42;;;;;;;3.93;3.20;;;10.40;99.90;;;;;;5019596;28;20256;-79
2023/04/24 01:59:10;;;;;;;3.30;3.00;;;10.40;99.90;;;;;;5036379;28;20238;-79
2023/04/24 02:01:37;;;;;;;3.90;3.50;;;10.40;99.90;;;;;;5022492;28;20234;-79
2023/04/24 02:04:05;;;;;;;3.50;3.20;;;10.40;99.90;;;;;;5041368;28;20226;-79
2023/04/24 02:06:32;;;;;;;4.27;3.30;;;10.40;99.90;;;;;;5024974;28;20236;-80
2023/04/24 02:09:01;;;;;;;5.93;3.43;;;10.30;99.90;;;;;;5022756;28;20228;-80
2023/04/24 02:11:28;;;;;;;3.33;3.03;;;10.30;99.90;;;;;;5029271;28;20289;-81
2023/04/24 02:13:56;;;;;;;4.47;3.00;;;10.20;99.90;;;;;;5034852;28;20248;-81
2023/04/24 02:16:23;;;;;;;3.10;2.80;;;10.20;99.90;;;;;;5021055;28;20626;-80
2023/04/24 02:18:50;;;;;;;3.70;2.90;;;10.20;99.90;;;;;;5024974;28;20306;-81
2023/04/24 02:21:17;;;;;;;3.70;2.93;;;10.10;99.90;;;;;;5003543;28;20293;-81
2023/04/24 02:23:44;;;;;;;4.70;3.00;;;10.10;99.90;;;;;;5010129;28;20925;-81
2023/04/24 02:26:13;;;;;;;4.87;3.40;;;10.10;99.90;;;;;;5014188;28;20219;-81
2023/04/24 02:28:40;;;;;;;3.50;3.20;;;10.00;99.90;;;;;;5012376;28;20231;-81
2023/04/24 02:31:08;;;;;;;3.50;3.20;;;10.00;99.90;;;;;;5031205;28;20868;-81
2023/04/24 02:33:35;;;;;;;4.03;3.03;;;9.90;99.90;;;;;;5014482;28;20825;-81
2023/04/24 02:36:02;;;;;;;3.30;2.83;;;9.90;99.90;;;;;;5009813;28;20236;-82
2023/04/24 02:38:29;;;;;;;3.50;3.03;;;9.80;99.90;;;;;;5032255;28;20303;-80
2023/04/24 02:40:56;;;;;;;3.00;2.70;;;9.70;99.90;;;;;;5015166;28;20688;-81
2023/04/24 02:43:22;;;;;;;3.30;3.00;;;9.80;99.90;;;;;;5050001;28;20846;-81
2023/04/24 02:45:49;;;;;;;3.27;2.90;;;9.70;99.90;;;;;;5009395;28;20621;-81
2023/04/24 02:48:18;;;;;;;4.27;2.97;;;9.70;99.90;;;;;;5022011;28;20225;-81
2023/04/24 02:50:45;;;;;;;3.47;2.73;;;9.60;99.90;;;;;;5026797;28;20914;-80
2023/04/24 02:53:11;;;;;;;3.17;2.60;;;9.60;99.90;;;;;;5007416;28;20314;-81
2023/04/24 02:55:38;;;;;;;3.03;2.30;;;9.50;99.90;;;;;;5023492;28;20311;-80
2023/04/24 02:58:05;;;;;;;2.50;2.30;;;9.60;99.90;;;;;;5042284;28;20217;-81
2023/04/24 03:00:32;;;;;;;2.67;2.47;;;9.50;99.90;;;;;;5013641;28;21048;-80
2023/04/24 03:02:59;;;;;;;2.40;2.20;;;9.50;99.90;;;;;;5045323;28;20225;-81
2023/04/24 03:05:28;;;;;;;2.60;2.27;;;9.40;99.90;;;;;;5012739;28;20233;-82
2023/04/24 03:07:55;;;;;;;2.03;1.83;;;9.40;99.90;;;;;;5044852;28;20721;-81
2023/04/24 03:10:23;;;;;;;2.30;2.10;;;9.40;99.90;;;;;;5013994;28;20598;-81
2023/04/24 03:12:50;;;;;;;3.60;2.17;;;9.40;99.90;;;;;;5032178;28;20240;-82
2023/04/24 03:15:19;;;;;;;2.00;1.90;;;9.30;99.90;;;;;;5013255;28;20224;-81
2023/04/24 03:17:45;;;;;;;3.03;1.80;;;9.30;99.90;;;;;;5014128;28;20229;-81
2023/04/24 03:20:12;;;;;;;2.40;1.87;;;9.20;99.90;;;;;;5017789;28;20342;-82
2023/04/24 03:22:41;;;;;;;2.17;1.60;;;9.20;99.90;;;;;;5016797;28;20782;-81
2023/04/24 03:25:09;;;;;;;2.10;1.70;;;9.20;99.90;;;;;;5034141;28;20216;-81
2023/04/24 03:27:37;;;;;;;1.77;1.30;;;9.20;99.90;;;;;;5023819;28;20229;-82
2023/04/24 03:30:22;;;;;;;1.90;1.70;;;9.20;99.90;;;;;;5024563;28;20219;-81
2023/04/24 03:32:55;;;;;;;1.67;1.47;;;9.20;99.90;;;;;;5029563;28;20279;-80
2023/04/24 03:35:26;;;;;;;1.40;1.30;;;9.20;99.90;;;;;;5011455;28;20225;-80
2023/04/24 03:37:55;;;;;;;1.40;1.30;;;9.10;99.90;;;;;;5024628;28;20226;-81
2023/04/24 03:40:48;;;;;;;2.90;1.50;;;9.10;99.90;;;;;;5019635;28;20351;-80
2023/04/24 03:43:28;;;;;;;2.13;1.60;;;9.10;99.90;;;;;;5006454;28;20221;-81
2023/04/24 03:45:58;;;;;;;1.70;1.50;;;9.00;99.90;;;;;;5012708;28;20215;-81
2023/04/24 03:48:25;;;;;;;1.43;1.33;;;9.00;99.90;;;;;;5013552;28;20233;-81
2023/04/24 03:50:53;;;;;;;1.60;1.50;;;9.00;99.90;;;;;;5010151;28;20492;-81
2023/04/24 03:53:22;;;;;;;2.70;1.70;;;9.00;99.90;;;;;;5027132;28;20221;-81
2023/04/24 03:55:50;;;;;;;1.80;1.70;;;9.00;99.90;;;;;;5027698;28;20300;-79
2023/04/24 03:58:17;;;;;;;1.80;1.70;;;9.00;99.90;;;;;;5005965;28;20877;-81
2023/04/24 04:00:46;;;;;;;2.60;1.60;;;9.00;99.90;;;;;;5008554;28;20270;-79
2023/04/24 04:03:33;;;;;;;1.60;1.27;;;9.00;99.90;;;;;;5016484;28;20240;-80
2023/04/24 04:06:00;;;;;;;1.80;1.70;;;8.90;99.90;;;;;;5011187;28;20692;-80
2023/04/24 04:08:29;;;;;;;1.57;1.47;;;8.90;99.90;;;;;;5037355;28;20464;-81
2023/04/24 04:10:55;;;;;;;1.47;1.37;;;8.90;99.90;;;;;;5036752;28;20316;-81
2023/04/24 04:13:23;;;;;;;1.50;1.40;;;9.00;99.90;;;;;;5023001;28;20300;-80
2023/04/24 04:15:50;;;;;;;2.00;1.70;;;8.90;99.90;;;;;;5032104;28;20307;-79
2023/04/24 04:18:17;;;;;;;1.50;1.40;;;8.90;99.90;;;;;;5012718;28;20315;-80
2023/04/24 04:20:44;;;;;;;1.50;1.40;;;8.90;99.90;;;;;;5013098;28;22219;-80
2023/04/24 04:23:13;;;;;;;1.67;1.57;;;8.80;99.90;;;;;;5015397;28;20236;-80
2023/04/24 04:26:05;;;;;;;1.43;1.33;;;8.80;99.90;;;;;;5024286;28;20311;-80
2023/04/24 04:28:47;;;;;;;1.80;1.37;;;8.80;99.90;;;;;;5022244;28;20229;-79
2023/04/24 04:31:14;;;;;;;1.47;1.33;;;8.70;99.90;;;;;;5009587;28;20227;-81
2023/04/24 04:33:41;;;;;;;1.50;1.40;;;8.70;99.90;;;;;;5010755;28;20972;-80
2023/04/24 04:36:09;;;;;;;1.73;1.30;;;8.70;99.90;;;;;;5003498;28;20636;-80
2023/04/24 04:38:40;;;;;;;2.40;1.30;;;8.70;99.90;;;;;;5025128;28;20227;-81
2023/04/24 04:41:18;;;;;;;1.37;1.27;;;8.70;99.90;;;;;;5026135;28;20591;-81
2023/04/24 04:43:47;;;;;;;1.33;1.23;;;8.70;99.90;;;;;;5002592;28;20212;-81
2023/04/24 04:46:14;;;;;;;1.40;1.30;;;8.70;99.90;;;;;;5022821;28;21850;-83
2023/04/24 04:48:57;;;;;;;3.93;1.40;;;8.70;99.90;;;;;;5008750;28;20335;-83
2023/04/24 04:51:24;;;;;;;1.40;1.30;;;8.80;99.90;;;;;;5032617;28;20259;-83
2023/04/24 04:53:51;;;;;;;1.37;1.27;;;8.80;99.90;;;;;;5041833;28;20698;-83
2023/04/24 04:56:19;;;;;;;1.47;1.30;;;8.80;99.90;;;;;;5023138;28;20249;-81
2023/04/24 04:58:46;;;;;;;1.40;1.20;;;8.80;99.90;;;;;;5022885;28;20308;-81
2023/04/24 05:01:16;;;;;;;1.90;1.30;;;8.80;99.90;;;;;;5007037;28;20966;-80
2023/04/24 05:03:46;;;;;;;2.27;1.60;;;8.90;99.90;;;;;;5012650;28;20224;-80
2023/04/24 05:06:15;;;;;;;1.20;1.10;;;8.90;99.90;;;;;;5008997;28;20295;-80
2023/04/24 05:08:43;;;;;;;1.70;1.60;;;9.00;99.90;;;;;;5024845;28;20710;-80
2023/04/24 05:11:18;;;;;;;2.13;1.93;;;9.00;99.90;;;;;;5003111;28;20221;-80
2023/04/24 05:13:45;;;;;;;2.97;2.27;;;9.00;99.90;;;;;;5041497;28;20227;-81
2023/04/24 05:16:17;;;;;;;2.07;1.53;;;9.10;99.90;;;;;;5022205;28;20267;-80
2023/04/24 05:18:45;;;;;;;1.53;1.43;;;9.10;99.90;;;;;;5006481;28;20213;-81
2023/04/24 05:21:15;;;;;;;1.90;1.70;;;9.20;99.90;;;;;;5006223;28;20224;-84
2023/04/24 05:23:44;;;;;;;3.43;1.60;;;9.20;99.90;;;;;;5012197;28;20226;-83
2023/04/24 05:26:15;;;;;;;1.60;1.50;;;9.20;99.90;;;;;;5016737;28;20304;-80
2023/04/24 05:28:43;;;;;;;2.20;1.23;;;9.20;99.90;;;;;;5023672;28;20286;-80
2023/04/24 05:31:13;;;;;;;1.33;0.90;;;9.30;99.90;;;;;;5023802;28;20224;-79
2023/04/24 05:33:40;;;;;;;2.43;1.30;;;9.30;99.90;;;;;;5016647;28;20715;-80
2023/04/24 05:36:07;;;;;;;1.83;1.40;;;9.40;99.90;;;;;;5009930;28;21033;-80
2023/04/24 05:38:34;;;;;;;1.20;1.10;;;9.40;99.90;;;;;;5013857;28;20325;-81
2023/04/24 05:41:01;;;;;;;1.10;0.90;;;9.50;99.90;;;;;;5024726;28;20220;-79
2023/04/24 05:43:28;;;;;;;2.90;1.30;;;9.50;99.90;;;;;;5041955;28;20270;-80
2023/04/24 05:45:56;;;;;;;1.30;1.20;;;9.50;99.90;;;;;;5044135;28;20229;-80
2023/04/24 05:48:23;;;;;;;2.90;1.40;;;9.50;99.90;;;;;;5013169;28;20238;-81
2023/04/24 05:50:50;;;;;;;0.80;0.80;;;9.60;99.90;;;;;;5007719;28;20216;-81
2023/04/24 05:53:17;;;;;;;1.17;0.90;;;9.60;99.90;;;;;;5027957;28;20228;-81
2023/04/24 05:55:45;;;;;;;0.97;0.90;;;9.60;99.90;;;;;;5011035;28;20295;-80
2023/04/24 05:58:12;;;;;;;1.60;0.97;;;9.70;99.90;;;;;;5026958;28;20870;-81
2023/04/24 06:00:42;;;;;;;1.73;1.10;;;9.80;99.90;;;;;;5002509;28;20229;-80
2023/04/24 06:03:10;;;;;;;1.10;1.00;;;9.80;99.90;;;;;;5022948;22;20228;-78
2023/04/24 06:05:37;;;;;;;2.30;1.17;;;9.90;99.90;;;;;;5015453;28;20678;-79
2023/04/24 06:08:04;;;;;;;1.30;1.20;;;9.90;99.90;;;;;;5002062;28;20229;-77
2023/04/24 06:10:34;;;;;;;1.23;1.10;;;9.90;99.90;;;;;;5001734;28;20733;-78
2023/04/24 06:13:01;;;;;;;1.00;0.90;;;10.00;99.90;;;;;;4999909;28;20256;-76
2023/04/24 06:15:31;;;;;;;1.50;1.13;;;10.10;99.90;;;;;;5010559;28;20333;-77
2023/04/24 06:18:01;;;;;;;1.50;1.30;;;10.20;99.90;;;;;;5020362;28;20217;-78
2023/04/24 06:20:29;;;;;;;1.63;1.10;;;10.30;99.90;;;;;;5037527;28;20218;-76
2023/04/24 06:22:56;;;;;;;1.37;1.10;;;10.40;99.90;;;;;;5021386;28;20226;-77
2023/04/24 06:25:22;;;;;;;2.07;1.17;;;10.60;99.90;;;;;;5021120;28;20228;-78
2023/04/24 06:27:51;;;;;;;1.60;1.10;;;10.70;99.90;;;;;;5020445;28;20299;-77
2023/04/24 06:30:17;;;;;;;2.30;1.17;;;10.80;99.90;;;;;;5020198;28;20227;-78
2023/04/24 06:32:44;;;;;;;1.40;1.30;;;11.00;99.90;;;;;;5020390;28;20278;-77
2023/04/24 06:35:12;;;;;;;2.33;1.20;;;11.10;99.90;;;;;;5019984;28;20250;-78
2023/04/24 06:37:40;;;;;;;1.20;1.10;;;11.20;99.90;;;;;;5019350;28;20715;-77
2023/04/24 06:40:08;;;;;;;1.57;0.90;;;11.30;99.90;;;;;;5029471;28;20325;-80
2023/04/24 06:42:35;;;;;;;1.13;1.03;;;11.50;99.90;;;;;;5029085;28;20793;-77
2023/04/24 06:45:03;;;;;;;4.13;1.30;;;11.60;99.90;;;;;;5023435;28;20303;-76
2023/04/24 06:47:30;;;;;;;1.30;1.10;;;11.70;99.90;;;;;;5018397;28;20250;-80
2023/04/24 06:49:57;;;;;;;1.20;1.10;;;11.70;99.90;;;;;;5025006;28;20220;-81
2023/04/24 06:52:24;;;;;;;1.53;1.20;;;11.90;99.90;;;;;;5023035;28;20239;-81
2023/04/24 06:54:52;;;;;;;4.10;1.70;;;11.90;99.90;;;;;;5030158;28;20231;-81
2023/04/24 06:57:19;;;;;;;1.40;1.30;;;11.80;99.90;;;;;;5024632;28;20239;-80
2023/04/24 06:59:46;;;;;;;1.60;1.50;;;11.80;99.90;;;;;;5023350;28;20315;-81
2023/04/24 07:02:12;;;;;;;4.20;1.80;;;11.80;99.90;;;;;;5027971;28;20229;-80
2023/04/24 07:04:39;;;;;;;1.50;1.40;;;11.80;99.90;;;;;;5025821;28;20236;-81
2023/04/24 07:07:06;;;;;;;2.33;1.60;;;11.70;99.90;;;;;;5022486;28;20225;-81
2023/04/24 07:09:35;;;;;;;2.07;1.50;;;11.60;99.90;;;;;;5028571;28;20338;-77
2023/04/24 07:12:03;;;;;;;1.93;1.40;;;11.60;99.90;;;;;;5032436;28;20326;-76
2023/04/24 07:14:30;;;;;;;1.90;1.50;;;11.60;99.90;;;;;;5016902;28;20249;-76
2023/04/24 07:16:57;;;;;;;2.00;1.50;;;11.60;99.90;;;;;;5032517;28;20235;-76
2023/04/24 07:19:24;;;;;;;2.20;1.90;;;11.70;99.90;;;;;;5034378;28;20275;-76
2023/04/24 07:21:50;;;;;;;2.13;1.80;;;11.70;99.90;;;;;;4998530;28;20958;-76
2023/04/24 07:24:17;;;;;;;1.80;1.60;;;11.80;99.90;;;;;;5004760;28;20226;-76
2023/04/24 07:26:46;;;;;;;2.40;2.00;;;11.90;99.90;;;;;;5004740;28;20334;-76
2023/04/24 07:29:14;;;;;;;4.37;1.90;;;12.10;99.90;;;;;;5007902;28;20235;-76
2023/04/24 07:31:41;;;;;;;1.90;1.80;;;12.40;99.90;;;;;;5023839;28;20259;-76
2023/04/24 07:34:08;;;;;;;2.03;1.93;;;12.60;99.90;;;;;;5007616;28;20227;-76
2023/04/24 07:36:34;;;;;;;2.70;1.90;;;12.90;99.90;;;;;;5001656;28;20242;-76
2023/04/24 07:39:01;;;;;;;1.73;1.60;;;13.20;99.90;;;;;;5029143;28;20232;-76
2023/04/24 07:41:28;;;;;;;2.27;1.93;;;13.50;99.90;;;;;;5024587;28;20231;-76
2023/04/24 07:43:55;;;;;;;2.00;1.80;;;13.90;99.90;;;;;;5023828;28;20228;-76
2023/04/24 07:46:24;;;;;;;2.30;2.10;;;14.20;99.90;;;;;;5032234;28;20216;-75
2023/04/24 07:48:51;;;;;;;2.33;1.80;;;14.40;99.90;;;;;;5030865;28;20694;-75
2023/04/24 07:51:18;;;;;;;2.80;2.00;;;14.60;99.90;;;;;;5003963;28;20236;-76
2023/04/24 07:53:45;;;;;;;2.13;1.93;;;14.70;99.80;;;;;;5005417;28;20869;-76
2023/04/24 07:56:11;;;;;;;2.63;2.03;;;14.70;99.90;;;;;;5004787;28;20260;-76
2023/04/24 07:58:38;;;;;;;3.10;1.97;;;14.80;99.90;;;;;;5003490;28;20236;-76
2023/04/24 08:01:05;;;;;;;2.30;2.10;;;15.00;99.90;;;;;;5005026;28;20224;-76
2023/04/24 08:03:33;;;;;;;2.60;2.00;;;15.30;99.90;;;;;;5016218;28;20241;-76
2023/04/24 08:06:00;;;;;;;2.10;1.90;;;15.50;98.60;;;;;;5025055;28;20592;-76
2023/04/24 08:08:26;;;;;;;3.63;2.00;;;15.80;98.60;;;;;;5024420;28;20292;-76
2023/04/24 08:10:53;;;;;;;2.37;2.17;;;16.10;98.10;;;;;;5033333;28;20278;-76
2023/04/24 08:13:20;;;;;;;2.40;2.20;;;16.20;96.80;;;;;;5028706;28;20320;-76
2023/04/24 08:15:46;;;;;;;4.67;2.00;;;16.10;97.00;;;;;;5018081;28;20872;-76
2023/04/24 08:18:15;;;;;;;2.50;2.30;;;16.10;97.00;;;;;;5030359;28;20227;-76
2023/04/24 08:20:43;;;;;;;2.77;2.13;;;15.90;96.60;;;;;;5026142;28;20260;-76
2023/04/24 08:23:10;;;;;;;3.97;2.77;;;15.70;96.90;;;;;;5032544;28;20224;-76
2023/04/24 08:25:36;;;;;;;2.50;2.20;;;15.60;96.60;;;;;;5024690;28;20243;-76
2023/04/24 08:28:04;;;;;;;2.73;2.53;;;15.50;97.50;;;;;;5024156;28;20235;-76
2023/04/24 08:30:31;;;;;;;2.87;2.67;;;15.50;97.40;;;;;;5026006;28;20300;-76
2023/04/24 08:32:58;;;;;;;2.90;2.70;;;15.40;97.50;;;;;;5036098;28;20235;-76
2023/04/24 08:35:25;;;;;;;3.13;2.23;;;15.40;97.40;;;;;;5029545;28;20659;-76
2023/04/24 08:37:53;;;;;;;2.80;2.50;;;15.30;97.80;;;;;;5026955;28;20232;-76
2023/04/24 08:40:27;;;;;;;2.70;2.50;;;15.30;97.60;;;;;;5028603;28;20217;-75
2023/04/24 08:42:56;;;;;;;2.83;2.47;;;15.40;97.40;;;;;;5023561;28;20233;-75
2023/04/24 08:45:23;;;;;;;3.47;2.93;;;15.20;96.90;;;;;;5004197;28;20284;-76
2023/04/24 08:47:50;;;;;;;3.67;3.13;;;15.20;96.90;;;;;;5038455;28;20243;-76
2023/04/24 08:50:18;;;;;;;3.30;3.00;;;15.00;96.90;;;;;;5043636;28;20238;-76
2023/04/24 08:52:44;;;;;;;3.60;3.30;;;14.90;97.30;;;;;;5033743;28;20228;-76
2023/04/24 08:55:13;;;;;;;4.13;3.50;;;14.80;97.70;;;;;;5026235;28;20229;-76
2023/04/24 08:57:40;;;;;;;4.20;3.70;;;14.70;97.60;;;;;;5024650;28;20316;-76
2023/04/24 09:00:08;;;;;;;4.60;4.20;;;14.70;97.30;;;;;;5030144;28;20315;-76
2023/04/24 09:02:35;;;;;;;4.67;4.27;;;14.50;97.10;;;;;;5029107;28;20721;-76
2023/04/24 09:05:03;;;;;;;4.40;4.00;;;14.50;96.90;;;;;;5022189;28;20652;-76
2023/04/24 09:07:32;;;;;;;5.13;3.97;;;14.40;97.30;;;;;;5023274;28;20251;-76
2023/04/24 09:10:00;;;;;;;4.17;3.80;;;14.40;98.10;;;;;;5017811;28;20226;-76
2023/04/24 09:12:28;;;;;;;3.30;3.00;;;14.50;98.20;;;;;;5024967;28;20702;-76
2023/04/24 09:14:55;;;;;;;3.80;3.43;;;14.70;98.00;;;;;;5033674;28;20229;-76
2023/04/24 09:17:23;;;;;;;3.40;3.10;;;14.80;98.10;;;;;;5026488;28;20230;-75
2023/04/24 09:19:50;;;;;;;4.03;3.20;;;15.00;97.10;;;;;;5026161;28;20331;-76
2023/04/24 09:22:17;;;;;;;3.00;2.70;;;15.30;97.00;;;;;;5028246;28;20220;-76
2023/04/24 09:24:46;;;;;;;2.90;2.70;;;15.30;95.80;;;;;;5025198;28;20232;-76
2023/04/24 09:27:13;;;;;;;2.40;2.17;;;15.40;95.80;;;;;;5042666;28;20532;-76
2023/04/24 09:29:54;;;;;;;4.57;2.70;;;15.40;96.10;;;;;;5029452;28;20323;-76
2023/04/24 09:32:24;;;;;;;5.07;2.80;;;15.40;95.80;;;;;;5022929;28;20240;-76
2023/04/24 09:35:07;;;;;;;2.93;2.73;;;15.40;95.70;;;;;;5023183;28;20300;-76
2023/04/24 09:37:36;;;;;;;2.93;2.63;;;15.30;95.30;;;;;;5025657;28;20317;-76
2023/04/24 09:40:14;;;;;;;3.83;3.43;;;15.30;96.20;;;;;;5030795;28;20252;-76
2023/04/24 09:42:43;;;;;;;3.40;3.10;;;15.20;95.20;;;;;;5021734;28;20286;-76
2023/04/24 09:45:12;;;;;;;4.27;3.63;;;15.00;95.70;;;;;;5036293;28;20247;-76
2023/04/24 09:47:39;;;;;;;3.70;3.40;;;14.90;96.00;;;;;;5041240;28;20234;-76
2023/04/24 09:50:16;;;;;;;4.50;3.93;;;14.70;95.90;;;;;;5021683;28;20710;-76
2023/04/24 09:52:44;;;;;;;4.97;4.17;;;14.50;95.90;;;;;;5023077;28;20269;-76
2023/04/24 09:55:19;;;;;;;4.00;3.70;;;14.40;96.50;;;;;;5024944;28;21017;-76
2023/04/24 09:57:51;;;;;;;4.33;3.80;;;14.30;96.30;;;;;;5021589;28;20239;-76
2023/04/24 10:00:25;;;;;;;4.57;4.13;;;14.20;96.50;;;;;;5018733;28;20311;-76
2023/04/24 10:02:55;;;;;;;4.00;3.70;;;14.20;96.80;;;;;;5021886;28;20238;-76
2023/04/24 10:05:24;;;;;;;5.00;4.20;;;14.30;97.20;;;;;;5025990;28;20735;-76
2023/04/24 10:07:51;;;;;;;4.57;4.13;;;14.30;97.30;;;;;;5027696;28;20271;-76
2023/04/24 10:10:18;;;;;;;4.97;4.30;;;14.40;96.80;;;;;;5039779;28;20219;-76
2023/04/24 10:12:45;;;;;;;4.87;4.37;;;14.40;96.40;;;;;;5032088;28;20239;-76
2023/04/24 10:15:13;;;;;;;4.20;3.80;;;14.40;96.50;;;;;;5018186;28;20222;-76
2023/04/24 10:17:42;;;;;;;4.77;4.30;;;14.50;96.70;;;;;;5023175;28;20251;-76
2023/04/24 10:20:09;;;;;;;5.47;4.93;;;14.60;96.20;;;;;;5010177;28;20572;-76
2023/04/24 10:22:37;;;;;;;6.17;4.57;;;14.60;95.60;;;;;;5020280;28;20234;-76
2023/04/24 10:25:06;;;;;;;5.10;4.60;;;14.80;96.60;;;;;;5032747;28;20326;-76
2023/04/24 10:27:34;;;;;;;5.73;4.57;;;15.00;96.60;;;;;;5026420;28;20778;-76
2023/04/24 10:30:03;;;;;;;5.17;4.67;;;15.10;95.80;;;;;;5025867;28;20320;-76
2023/04/24 10:32:30;;;;;;;4.80;4.40;;;15.10;95.10;;;;;;5024945;28;20282;-76
2023/04/24 10:34:58;;;;;;;6.13;4.83;;;15.00;95.70;;;;;;5023911;28;20299;-76
2023/04/24 10:37:26;;;;;;;6.23;5.33;;;15.00;95.80;;;;;;5024377;28;20237;-76
2023/04/24 10:39:54;;;;;;;6.00;5.30;;;14.90;95.00;;;;;;5029066;28;20530;-76
2023/04/24 10:42:21;;;;;;;5.80;4.97;;;14.70;95.90;;;;;;5027033;28;20246;-76
2023/04/24 10:44:49;;;;;;;6.77;6.00;;;14.70;96.20;;;;;;5025957;28;20330;-75
2023/04/24 10:47:15;;;;;;;7.07;5.57;;;14.60;96.10;;;;;;5023416;28;20709;-76
2023/04/24 10:49:43;;;;;;;6.87;5.70;;;14.60;96.40;;;;;;5033556;28;20260;-76
2023/04/24 10:52:11;;;;;;;7.73;6.00;;;14.50;96.70;;;;;;5025640;28;20239;-76
2023/04/24 10:54:43;;;;;;;6.67;5.97;;;14.60;96.60;;;;;;5020444;28;20222;-76
2023/04/24 10:57:30;;;;;;;8.60;6.57;;;14.50;96.40;;;;;;5030332;28;20717;-76
2023/04/24 11:00:19;;;;;;;7.93;6.67;;;14.50;96.50;;;;;;5033671;28;20223;-76
2023/04/24 11:02:50;;;;;;;8.57;6.70;;;14.30;95.90;;;;;;5027423;28;20259;-76
2023/04/24 11:05:17;;;;;;;9.07;7.67;;;14.30;96.50;;;;;;5023723;28;20247;-75
2023/04/24 11:08:14;;;;;;;10.47;7.07;;;14.10;96.50;;;;;;5031623;28;20279;-76
2023/04/24 11:10:44;;;;;;;10.70;6.07;;;14.00;96.80;;;;;;5022331;28;20232;-75
2023/04/24 11:13:11;;;;;;;8.83;6.47;;;14.10;97.30;;;;;;5028807;28;20230;-75
2023/04/24 11:15:37;;;;;;;8.30;6.90;;;14.20;96.80;;;;;;5025229;28;20338;-76
2023/04/24 11:18:04;;;;;;;8.23;7.33;;;14.40;96.90;;;;;;5029945;28;20336;-76
2023/04/24 11:20:31;;;;;;;9.73;7.27;;;14.50;96.50;;;;;;5025550;28;20670;-76
2023/04/24 11:23:04;;;;;;;7.87;6.70;;;14.70;96.50;;;;;;5030180;28;20232;-76
2023/04/24 11:25:33;;;;;;;8.07;6.67;;;14.80;95.40;;;;;;5028020;28;20438;-76
2023/04/24 11:28:05;;;;;;;7.93;7.13;;;14.90;96.20;;;;;;5024895;28;20225;-76
2023/04/24 11:30:33;;;;;;;9.07;7.40;;;15.00;96.10;;;;;;5028031;28;20231;-76
2023/04/24 11:33:04;;;;;;;8.00;6.83;;;15.10;96.20;;;;;;5023790;28;20233;-76
2023/04/24 11:35:37;;;;;;;7.60;6.80;;;15.30;95.40;;;;;;5026153;28;20303;-76
2023/04/24 11:38:05;;;;;;;9.10;6.77;;;15.60;94.50;;;;;;5022241;28;20282;-76
2023/04/24 11:40:33;;;;;;;7.53;6.73;;;15.80;93.80;;;;;;5023984;28;20575;-76
2023/04/24 11:43:01;;;;;;;6.80;6.10;;;15.90;93.00;;;;;;5027931;28;20303;-76
2023/04/24 11:45:31;;;;;;;7.50;6.70;;;16.00;93.90;;;;;;5021448;28;20238;-76
2023/04/24 11:47:59;;;;;;;6.97;6.33;;;16.00;93.10;;;;;;5023310;28;20217;-76
2023/04/24 11:50:28;;;;;;;8.33;6.63;;;16.00;93.00;;;;;;5020161;28;20307;-76
2023/04/24 11:52:55;;;;;;;8.93;7.10;;;16.00;93.20;;;;;;5034873;28;20242;-76
2023/04/24 11:55:27;;;;;;;9.33;6.73;;;15.90;92.40;;;;;;5025472;28;20725;-75
2023/04/24 11:57:57;;;;;;;7.07;6.17;;;15.70;92.80;;;;;;5026810;28;20706;-76
2023/04/24 12:00:26;;;;;;;7.60;5.73;;;15.60;93.10;;;;;;5022435;28;20262;-76
2023/04/24 12:03:06;;;;;;;10.20;5.80;;;15.60;93.00;;;;;;5053843;22;20229;-78
2023/04/24 12:05:34;;;;;;;7.47;5.23;;;15.40;92.30;;;;;;5003182;28;20262;-79
2023/04/24 12:08:01;;;;;;;7.93;5.77;;;15.40;92.80;;;;;;5000813;28;20694;-78
2023/04/24 12:10:29;;;;;;;7.13;5.73;;;15.40;92.70;;;;;;5000650;28;20231;-79
2023/04/24 12:13:00;;;;;;;7.63;4.97;;;15.20;91.50;;;;;;5005001;28;20245;-79
2023/04/24 12:15:28;;;;;;;6.23;4.93;;;15.10;92.20;;;;;;5004908;28;21124;-78
2023/04/24 12:17:56;;;;;;;6.30;4.70;;;15.00;92.10;;;;;;5013634;28;20799;-79
2023/04/24 12:20:25;;;;;;;5.00;4.50;;;15.00;92.80;;;;;;5019814;28;20227;-79
2023/04/24 12:22:54;;;;;;;5.10;4.60;;;15.00;92.90;;;;;;5015007;28;20236;-78
2023/04/24 12:25:22;;;;;;;5.00;4.50;;;15.00;92.80;;;;;;5018010;28;20719;-79
2023/04/24 12:27:54;;;;;;;6.77;5.00;;;15.10;92.60;;;;;;5022004;28;20220;-78
2023/04/24 12:30:27;;;;;;;4.83;4.33;;;15.10;92.60;;;;;;5016540;28;20221;-78
2023/04/24 12:32:54;;;;;;;4.13;3.50;;;15.30;92.90;;;;;;5012269;28;20294;-79
2023/04/24 12:35:22;;;;;;;4.50;3.60;;;15.40;92.60;;;;;;5024847;28;20224;-78
2023/04/24 12:37:52;;;;;;;4.47;4.07;;;15.50;92.00;;;;;;5014090;28;20311;-79
2023/04/24 12:40:22;;;;;;;3.97;3.57;;;15.60;91.80;;;;;;5014753;28;20232;-78
2023/04/24 12:42:52;;;;;;;4.03;3.50;;;15.70;91.30;;;;;;5026837;28;20243;-81
2023/04/24 12:45:23;;;;;;;4.33;3.93;;;15.80;91.10;;;;;;5001239;28;20733;-80
2023/04/24 12:47:50;;;;;;;4.23;3.87;;;15.80;91.00;;;;;;5027100;28;20245;-81
2023/04/24 12:50:17;;;;;;;4.30;3.90;;;15.80;91.60;;;;;;5018078;28;20227;-80
2023/04/24 12:52:44;;;;;;;5.83;3.93;;;15.90;91.60;;;;;;5019769;28;20232;-80
2023/04/24 12:55:11;;;;;;;4.70;4.10;;;15.90;91.50;;;;;;5025562;28;20324;-80
2023/04/24 12:57:40;;;;;;;4.27;3.80;;;15.80;91.70;;;;;;5026294;28;20223;-80